sensor_id;sensor_type;location;lat;lon;timestamp;P1;durP1;ratioP1;P2;durP2;ratioP2
35056;SDS011;21241;51.828;19.574;2023-05-16T00:02:09;20.60;;;19.20;;
35056;SDS011;21241;51.828;19.574;2023-05-16T00:04:37;18.70;;;17.40;;
35056;SDS011;21241;51.828;19.574;2023-05-16T00:07:05;19.30;;;18.10;;
35056;SDS011;21241;51.828;19.574;2023-05-16T00:09:33;17.60;;;16.50;;
35056;SDS011;21241;51.828;19.574;2023-05-16T00:12:00;17.40;;;16.30;;
35056;SDS011;21241;51.828;19.574;2023-05-16T00:14:28;17.70;;;16.60;;
35056;SDS011;21241;51.828;19.574;2023-05-16T00:16:56;16.60;;;15.50;;
35056;SDS011;21241;51.828;19.574;2023-05-16T00:19:27;17.10;;;16.00;;
35056;SDS011;21241;51.828;19.574;2023-05-16T00:21:56;17.90;;;16.70;;
35056;SDS011;21241;51.828;19.574;2023-05-16T00:24:24;17.20;;;16.10;;
35056;SDS011;21241;51.828;19.574;2023-05-16T00:26:52;15.80;;;14.80;;
35056;SDS011;21241;51.828;19.574;2023-05-16T00:29:20;16.40;;;15.30;;
35056;SDS011;21241;51.828;19.574;2023-05-16T00:31:50;16.30;;;15.30;;
35056;SDS011;21241;51.828;19.574;2023-05-16T00:34:18;16.50;;;15.60;;
35056;SDS011;21241;51.828;19.574;2023-05-16T00:36:50;17.00;;;15.90;;
35056;SDS011;21241;51.828;19.574;2023-05-16T00:39:18;17.30;;;16.20;;
35056;SDS011;21241;51.828;19.574;2023-05-16T00:41:46;17.10;;;16.00;;
35056;SDS011;21241;51.828;19.574;2023-05-16T00:44:13;17.00;;;15.90;;
35056;SDS011;21241;51.828;19.574;2023-05-16T00:46:42;18.10;;;16.90;;
35056;SDS011;21241;51.828;19.574;2023-05-16T00:49:11;19.80;;;18.60;;
35056;SDS011;21241;51.828;19.574;2023-05-16T00:51:39;21.10;;;19.70;;
35056;SDS011;21241;51.828;19.574;2023-05-16T00:54:07;24.80;;;23.20;;
35056;SDS011;21241;51.828;19.574;2023-05-16T00:56:34;25.00;;;23.40;;
35056;SDS011;21241;51.828;19.574;2023-05-16T00:59:03;25.40;;;23.90;;
35056;SDS011;21241;51.828;19.574;2023-05-16T01:01:30;25.20;;;23.60;;
35056;SDS011;21241;51.828;19.574;2023-05-16T01:03:59;25.10;;;23.50;;
35056;SDS011;21241;51.828;19.574;2023-05-16T01:06:27;25.10;;;23.40;;
35056;SDS011;21241;51.828;19.574;2023-05-16T01:08:55;24.80;;;23.10;;
35056;SDS011;21241;51.828;19.574;2023-05-16T01:11:32;25.60;;;24.00;;
35056;SDS011;21241;51.828;19.574;2023-05-16T01:14:16;25.10;;;23.40;;
35056;SDS011;21241;51.828;19.574;2023-05-16T01:16:58;23.70;;;22.10;;
35056;SDS011;21241;51.828;19.574;2023-05-16T01:28:12;22.90;;;21.50;;
35056;SDS011;21241;51.828;19.574;2023-05-16T01:30:42;21.50;;;20.20;;
35056;SDS011;21241;51.828;19.574;2023-05-16T01:33:11;22.20;;;20.60;;
35056;SDS011;21241;51.828;19.574;2023-05-16T01:35:40;21.20;;;19.70;;
35056;SDS011;21241;51.828;19.574;2023-05-16T01:38:15;20.40;;;19.10;;
35056;SDS011;21241;51.828;19.574;2023-05-16T01:41:05;20.40;;;19.10;;
35056;SDS011;21241;51.828;19.574;2023-05-16T01:43:41;20.10;;;18.80;;
35056;SDS011;21241;51.828;19.574;2023-05-16T01:46:10;20.50;;;19.20;;
35056;SDS011;21241;51.828;19.574;2023-05-16T01:48:49;21.80;;;20.30;;
35056;SDS011;21241;51.828;19.574;2023-05-16T01:51:23;21.10;;;19.70;;
35056;SDS011;21241;51.828;19.574;2023-05-16T01:53:55;22.40;;;20.90;;
35056;SDS011;21241;51.828;19.574;2023-05-16T01:56:27;22.00;;;20.50;;
35056;SDS011;21241;51.828;19.574;2023-05-16T01:58:56;22.00;;;20.60;;
35056;SDS011;21241;51.828;19.574;2023-05-16T02:01:24;22.20;;;20.80;;
35056;SDS011;21241;51.828;19.574;2023-05-16T02:03:52;23.60;;;22.20;;
35056;SDS011;21241;51.828;19.574;2023-05-16T02:06:20;22.30;;;20.90;;
35056;SDS011;21241;51.828;19.574;2023-05-16T02:08:48;24.40;;;22.70;;
35056;SDS011;21241;51.828;19.574;2023-05-16T02:11:17;23.80;;;22.20;;
35056;SDS011;21241;51.828;19.574;2023-05-16T02:13:45;24.40;;;22.80;;
35056;SDS011;21241;51.828;19.574;2023-05-16T02:16:13;25.30;;;23.50;;
35056;SDS011;21241;51.828;19.574;2023-05-16T02:18:41;24.80;;;23.10;;
35056;SDS011;21241;51.828;19.574;2023-05-16T02:21:09;24.90;;;23.20;;
35056;SDS011;21241;51.828;19.574;2023-05-16T02:23:37;24.70;;;23.00;;
35056;SDS011;21241;51.828;19.574;2023-05-16T02:26:04;24.80;;;23.10;;
35056;SDS011;21241;51.828;19.574;2023-05-16T02:28:32;25.40;;;23.80;;
35056;SDS011;21241;51.828;19.574;2023-05-16T02:31:00;25.10;;;23.50;;
35056;SDS011;21241;51.828;19.574;2023-05-16T02:33:29;25.00;;;23.30;;
35056;SDS011;21241;51.828;19.574;2023-05-16T02:35:56;25.50;;;23.80;;
35056;SDS011;21241;51.828;19.574;2023-05-16T02:38:25;24.10;;;22.50;;
35056;SDS011;21241;51.828;19.574;2023-05-16T02:40:55;24.80;;;23.20;;
35056;SDS011;21241;51.828;19.574;2023-05-16T02:43:23;24.20;;;22.60;;
35056;SDS011;21241;51.828;19.574;2023-05-16T02:45:50;24.00;;;22.50;;
35056;SDS011;21241;51.828;19.574;2023-05-16T02:48:19;24.50;;;23.00;;
35056;SDS011;21241;51.828;19.574;2023-05-16T02:50:47;24.80;;;23.10;;
35056;SDS011;21241;51.828;19.574;2023-05-16T02:53:15;24.20;;;22.70;;
35056;SDS011;21241;51.828;19.574;2023-05-16T02:55:42;25.30;;;23.60;;
35056;SDS011;21241;51.828;19.574;2023-05-16T02:58:10;25.80;;;24.10;;
35056;SDS011;21241;51.828;19.574;2023-05-16T03:00:37;25.60;;;24.00;;
35056;SDS011;21241;51.828;19.574;2023-05-16T03:03:05;27.30;;;25.50;;
35056;SDS011;21241;51.828;19.574;2023-05-16T03:05:33;26.50;;;24.80;;
35056;SDS011;21241;51.828;19.574;2023-05-16T03:08:01;26.90;;;25.10;;
35056;SDS011;21241;51.828;19.574;2023-05-16T03:10:28;26.70;;;24.90;;
35056;SDS011;21241;51.828;19.574;2023-05-16T03:12:56;25.90;;;24.20;;
35056;SDS011;21241;51.828;19.574;2023-05-16T03:15:24;25.40;;;23.80;;
35056;SDS011;21241;51.828;19.574;2023-05-16T03:17:52;25.30;;;23.60;;
35056;SDS011;21241;51.828;19.574;2023-05-16T03:20:20;25.30;;;23.50;;
35056;SDS011;21241;51.828;19.574;2023-05-16T03:22:49;25.90;;;23.90;;
35056;SDS011;21241;51.828;19.574;2023-05-16T03:25:17;24.80;;;23.20;;
35056;SDS011;21241;51.828;19.574;2023-05-16T03:27:45;24.70;;;23.10;;
35056;SDS011;21241;51.828;19.574;2023-05-16T03:30:12;25.00;;;23.40;;
35056;SDS011;21241;51.828;19.574;2023-05-16T03:32:40;24.90;;;23.20;;
35056;SDS011;21241;51.828;19.574;2023-05-16T03:35:08;24.90;;;23.30;;
35056;SDS011;21241;51.828;19.574;2023-05-16T03:37:36;24.10;;;22.50;;
35056;SDS011;21241;51.828;19.574;2023-05-16T03:40:05;23.70;;;22.20;;
35056;SDS011;21241;51.828;19.574;2023-05-16T03:42:33;23.70;;;22.10;;
35056;SDS011;21241;51.828;19.574;2023-05-16T03:45:01;23.70;;;22.10;;
35056;SDS011;21241;51.828;19.574;2023-05-16T03:47:31;23.20;;;21.70;;
35056;SDS011;21241;51.828;19.574;2023-05-16T03:49:59;22.70;;;21.30;;
35056;SDS011;21241;51.828;19.574;2023-05-16T03:52:27;22.70;;;21.30;;
35056;SDS011;21241;51.828;19.574;2023-05-16T03:54:55;24.00;;;22.40;;
35056;SDS011;21241;51.828;19.574;2023-05-16T03:57:23;22.90;;;21.40;;
35056;SDS011;21241;51.828;19.574;2023-05-16T03:59:51;23.00;;;21.60;;
35056;SDS011;21241;51.828;19.574;2023-05-16T04:02:18;22.50;;;20.90;;
35056;SDS011;21241;51.828;19.574;2023-05-16T04:04:46;22.60;;;21.20;;
35056;SDS011;21241;51.828;19.574;2023-05-16T04:07:14;23.20;;;21.70;;
35056;SDS011;21241;51.828;19.574;2023-05-16T04:09:42;21.00;;;19.80;;
35056;SDS011;21241;51.828;19.574;2023-05-16T04:12:10;22.10;;;20.50;;
35056;SDS011;21241;51.828;19.574;2023-05-16T04:14:37;20.90;;;19.60;;
35056;SDS011;21241;51.828;19.574;2023-05-16T04:17:05;21.00;;;19.60;;
35056;SDS011;21241;51.828;19.574;2023-05-16T04:19:33;20.20;;;18.70;;
35056;SDS011;21241;51.828;19.574;2023-05-16T04:22:01;20.20;;;18.90;;
35056;SDS011;21241;51.828;19.574;2023-05-16T04:24:28;20.60;;;19.30;;
35056;SDS011;21241;51.828;19.574;2023-05-16T04:26:56;21.40;;;20.00;;
35056;SDS011;21241;51.828;19.574;2023-05-16T04:29:23;20.40;;;19.00;;
35056;SDS011;21241;51.828;19.574;2023-05-16T04:31:52;21.50;;;20.10;;
35056;SDS011;21241;51.828;19.574;2023-05-16T04:34:20;20.90;;;19.60;;
35056;SDS011;21241;51.828;19.574;2023-05-16T04:36:49;21.40;;;20.10;;
35056;SDS011;21241;51.828;19.574;2023-05-16T04:39:17;22.00;;;20.50;;
35056;SDS011;21241;51.828;19.574;2023-05-16T04:41:44;21.70;;;20.20;;
35056;SDS011;21241;51.828;19.574;2023-05-16T04:44:12;21.10;;;19.80;;
35056;SDS011;21241;51.828;19.574;2023-05-16T04:46:40;20.70;;;19.30;;
35056;SDS011;21241;51.828;19.574;2023-05-16T04:49:08;21.10;;;19.70;;
35056;SDS011;21241;51.828;19.574;2023-05-16T04:51:37;20.70;;;19.30;;
35056;SDS011;21241;51.828;19.574;2023-05-16T04:54:05;22.40;;;21.00;;
35056;SDS011;21241;51.828;19.574;2023-05-16T04:56:32;21.80;;;20.40;;
35056;SDS011;21241;51.828;19.574;2023-05-16T04:59:00;22.00;;;20.60;;
35056;SDS011;21241;51.828;19.574;2023-05-16T05:01:29;21.30;;;20.00;;
35056;SDS011;21241;51.828;19.574;2023-05-16T05:03:56;21.10;;;19.80;;
35056;SDS011;21241;51.828;19.574;2023-05-16T05:06:24;21.40;;;20.00;;
35056;SDS011;21241;51.828;19.574;2023-05-16T05:08:52;21.40;;;20.00;;
35056;SDS011;21241;51.828;19.574;2023-05-16T05:11:21;22.30;;;20.80;;
35056;SDS011;21241;51.828;19.574;2023-05-16T05:13:49;21.00;;;19.70;;
35056;SDS011;21241;51.828;19.574;2023-05-16T05:16:19;21.30;;;20.00;;
35056;SDS011;21241;51.828;19.574;2023-05-16T05:18:47;21.00;;;19.70;;
35056;SDS011;21241;51.828;19.574;2023-05-16T05:21:15;21.40;;;20.10;;
35056;SDS011;21241;51.828;19.574;2023-05-16T05:23:42;21.10;;;19.80;;
35056;SDS011;21241;51.828;19.574;2023-05-16T05:26:10;20.20;;;18.90;;
35056;SDS011;21241;51.828;19.574;2023-05-16T05:28:38;20.90;;;19.60;;
35056;SDS011;21241;51.828;19.574;2023-05-16T05:31:33;20.20;;;18.80;;
35056;SDS011;21241;51.828;19.574;2023-05-16T05:34:02;20.40;;;19.10;;
35056;SDS011;21241;51.828;19.574;2023-05-16T05:36:29;20.30;;;19.10;;
35056;SDS011;21241;51.828;19.574;2023-05-16T05:38:58;20.70;;;19.50;;
35056;SDS011;21241;51.828;19.574;2023-05-16T05:41:25;20.00;;;18.80;;
35056;SDS011;21241;51.828;19.574;2023-05-16T05:43:53;20.60;;;19.40;;
35056;SDS011;21241;51.828;19.574;2023-05-16T05:46:21;20.40;;;19.20;;
35056;SDS011;21241;51.828;19.574;2023-05-16T05:48:49;21.20;;;19.70;;
35056;SDS011;21241;51.828;19.574;2023-05-16T05:51:16;20.80;;;19.40;;
35056;SDS011;21241;51.828;19.574;2023-05-16T05:53:44;21.50;;;20.20;;
35056;SDS011;21241;51.828;19.574;2023-05-16T05:56:12;20.50;;;19.20;;
35056;SDS011;21241;51.828;19.574;2023-05-16T05:58:39;23.00;;;21.10;;
35056;SDS011;21241;51.828;19.574;2023-05-16T06:01:11;21.50;;;20.20;;
35056;SDS011;21241;51.828;19.574;2023-05-16T06:03:39;21.80;;;20.50;;
35056;SDS011;21241;51.828;19.574;2023-05-16T06:06:07;22.40;;;20.80;;
35056;SDS011;21241;51.828;19.574;2023-05-16T06:08:35;21.60;;;20.30;;
35056;SDS011;21241;51.828;19.574;2023-05-16T06:11:03;22.30;;;21.00;;
35056;SDS011;21241;51.828;19.574;2023-05-16T06:13:31;21.60;;;20.40;;
35056;SDS011;21241;51.828;19.574;2023-05-16T06:15:58;22.50;;;21.20;;
35056;SDS011;21241;51.828;19.574;2023-05-16T06:18:26;23.10;;;21.80;;
35056;SDS011;21241;51.828;19.574;2023-05-16T06:20:54;22.20;;;20.70;;
35056;SDS011;21241;51.828;19.574;2023-05-16T06:23:21;22.20;;;20.80;;
35056;SDS011;21241;51.828;19.574;2023-05-16T06:25:49;20.70;;;19.40;;
35056;SDS011;21241;51.828;19.574;2023-05-16T06:28:17;20.20;;;18.90;;
35056;SDS011;21241;51.828;19.574;2023-05-16T06:30:45;21.30;;;20.10;;
35056;SDS011;21241;51.828;19.574;2023-05-16T06:33:14;21.40;;;20.20;;
35056;SDS011;21241;51.828;19.574;2023-05-16T06:35:42;19.60;;;18.40;;
35056;SDS011;21241;51.828;19.574;2023-05-16T06:38:09;21.70;;;20.50;;
35056;SDS011;21241;51.828;19.574;2023-05-16T06:40:37;20.60;;;19.40;;
35056;SDS011;21241;51.828;19.574;2023-05-16T06:43:05;20.80;;;19.50;;
35056;SDS011;21241;51.828;19.574;2023-05-16T06:45:33;19.40;;;18.20;;
35056;SDS011;21241;51.828;19.574;2023-05-16T06:48:00;21.50;;;20.20;;
35056;SDS011;21241;51.828;19.574;2023-05-16T06:50:28;21.30;;;20.00;;
35056;SDS011;21241;51.828;19.574;2023-05-16T06:52:56;20.10;;;18.90;;
35056;SDS011;21241;51.828;19.574;2023-05-16T06:55:24;19.80;;;18.60;;
35056;SDS011;21241;51.828;19.574;2023-05-16T06:57:52;16.90;;;15.90;;
35056;SDS011;21241;51.828;19.574;2023-05-16T07:00:20;14.50;;;13.50;;
35056;SDS011;21241;51.828;19.574;2023-05-16T07:02:48;13.20;;;12.40;;
35056;SDS011;21241;51.828;19.574;2023-05-16T07:05:17;13.10;;;12.30;;
35056;SDS011;21241;51.828;19.574;2023-05-16T07:07:44;12.30;;;11.60;;
35056;SDS011;21241;51.828;19.574;2023-05-16T07:10:12;12.20;;;11.40;;
35056;SDS011;21241;51.828;19.574;2023-05-16T07:12:41;10.60;;;9.90;;
35056;SDS011;21241;51.828;19.574;2023-05-16T07:15:09;10.60;;;10.10;;
35056;SDS011;21241;51.828;19.574;2023-05-16T07:17:37;10.30;;;9.70;;
35056;SDS011;21241;51.828;19.574;2023-05-16T07:20:05;9.70;;;9.00;;
35056;SDS011;21241;51.828;19.574;2023-05-16T07:22:34;9.80;;;9.20;;
35056;SDS011;21241;51.828;19.574;2023-05-16T07:25:02;10.50;;;9.80;;
35056;SDS011;21241;51.828;19.574;2023-05-16T07:27:30;10.00;;;9.40;;
35056;SDS011;21241;51.828;19.574;2023-05-16T07:29:58;8.50;;;8.00;;
35056;SDS011;21241;51.828;19.574;2023-05-16T07:32:26;8.40;;;7.80;;
35056;SDS011;21241;51.828;19.574;2023-05-16T07:34:53;7.30;;;6.80;;
35056;SDS011;21241;51.828;19.574;2023-05-16T07:37:21;5.90;;;5.50;;
35056;SDS011;21241;51.828;19.574;2023-05-16T07:39:49;5.80;;;5.40;;
35056;SDS011;21241;51.828;19.574;2023-05-16T07:42:17;5.60;;;5.20;;
35056;SDS011;21241;51.828;19.574;2023-05-16T07:44:44;5.60;;;5.20;;
35056;SDS011;21241;51.828;19.574;2023-05-16T07:47:12;5.10;;;4.90;;
35056;SDS011;21241;51.828;19.574;2023-05-16T07:49:40;5.10;;;4.80;;
35056;SDS011;21241;51.828;19.574;2023-05-16T07:52:08;4.90;;;4.60;;
35056;SDS011;21241;51.828;19.574;2023-05-16T07:54:36;5.40;;;5.10;;
35056;SDS011;21241;51.828;19.574;2023-05-16T07:57:04;5.30;;;5.00;;
35056;SDS011;21241;51.828;19.574;2023-05-16T07:59:32;4.80;;;4.40;;
35056;SDS011;21241;51.828;19.574;2023-05-16T08:02:00;4.00;;;3.80;;
35056;SDS011;21241;51.828;19.574;2023-05-16T08:04:27;3.70;;;3.50;;
35056;SDS011;21241;51.828;19.574;2023-05-16T08:06:55;4.10;;;3.90;;
35056;SDS011;21241;51.828;19.574;2023-05-16T08:09:23;4.50;;;4.10;;
35056;SDS011;21241;51.828;19.574;2023-05-16T08:11:50;4.40;;;4.10;;
35056;SDS011;21241;51.828;19.574;2023-05-16T08:14:18;4.20;;;3.90;;
35056;SDS011;21241;51.828;19.574;2023-05-16T08:16:46;3.70;;;3.50;;
35056;SDS011;21241;51.828;19.574;2023-05-16T08:19:13;3.60;;;3.40;;
35056;SDS011;21241;51.828;19.574;2023-05-16T08:21:41;3.20;;;3.00;;
35056;SDS011;21241;51.828;19.574;2023-05-16T08:24:09;3.50;;;3.30;;
35056;SDS011;21241;51.828;19.574;2023-05-16T08:26:38;3.70;;;3.50;;
35056;SDS011;21241;51.828;19.574;2023-05-16T08:29:06;3.70;;;3.40;;
35056;SDS011;21241;51.828;19.574;2023-05-16T08:31:33;3.90;;;3.70;;
35056;SDS011;21241;51.828;19.574;2023-05-16T08:34:01;4.10;;;3.80;;
35056;SDS011;21241;51.828;19.574;2023-05-16T08:36:29;3.90;;;3.70;;
35056;SDS011;21241;51.828;19.574;2023-05-16T08:38:58;3.60;;;3.30;;
35056;SDS011;21241;51.828;19.574;2023-05-16T08:41:25;3.30;;;3.20;;
35056;SDS011;21241;51.828;19.574;2023-05-16T08:43:53;4.20;;;3.10;;
35056;SDS011;21241;51.828;19.574;2023-05-16T08:46:22;3.40;;;3.10;;
35056;SDS011;21241;51.828;19.574;2023-05-16T08:48:50;3.20;;;3.00;;
35056;SDS011;21241;51.828;19.574;2023-05-16T08:51:19;3.00;;;2.90;;
35056;SDS011;21241;51.828;19.574;2023-05-16T08:53:56;3.00;;;2.90;;
35056;SDS011;21241;51.828;19.574;2023-05-16T08:56:33;3.30;;;3.10;;
35056;SDS011;21241;51.828;19.574;2023-05-16T08:59:02;3.10;;;3.00;;
35056;SDS011;21241;51.828;19.574;2023-05-16T09:01:29;3.30;;;3.10;;
35056;SDS011;21241;51.828;19.574;2023-05-16T09:04:01;3.50;;;3.30;;
35056;SDS011;21241;51.828;19.574;2023-05-16T09:06:30;3.70;;;3.50;;
35056;SDS011;21241;51.828;19.574;2023-05-16T09:08:58;3.50;;;3.30;;
35056;SDS011;21241;51.828;19.574;2023-05-16T09:11:25;2.70;;;2.50;;
35056;SDS011;21241;51.828;19.574;2023-05-16T09:13:53;3.30;;;3.00;;
35056;SDS011;21241;51.828;19.574;2023-05-16T09:16:21;2.90;;;2.80;;
35056;SDS011;21241;51.828;19.574;2023-05-16T09:18:52;3.20;;;3.00;;
35056;SDS011;21241;51.828;19.574;2023-05-16T09:21:25;3.40;;;3.10;;
35056;SDS011;21241;51.828;19.574;2023-05-16T09:23:54;2.90;;;2.70;;
35056;SDS011;21241;51.828;19.574;2023-05-16T09:26:22;2.90;;;2.70;;
35056;SDS011;21241;51.828;19.574;2023-05-16T09:28:52;2.90;;;2.70;;
35056;SDS011;21241;51.828;19.574;2023-05-16T09:31:22;2.70;;;2.50;;
35056;SDS011;21241;51.828;19.574;2023-05-16T09:33:54;3.00;;;2.60;;
35056;SDS011;21241;51.828;19.574;2023-05-16T09:36:22;2.80;;;2.60;;
35056;SDS011;21241;51.828;19.574;2023-05-16T09:38:51;2.40;;;2.20;;
35056;SDS011;21241;51.828;19.574;2023-05-16T09:41:20;2.50;;;2.30;;
35056;SDS011;21241;51.828;19.574;2023-05-16T09:43:48;2.20;;;2.10;;
35056;SDS011;21241;51.828;19.574;2023-05-16T09:46:16;2.10;;;1.90;;
35056;SDS011;21241;51.828;19.574;2023-05-16T09:48:44;2.30;;;2.20;;
35056;SDS011;21241;51.828;19.574;2023-05-16T09:51:13;2.40;;;2.30;;
35056;SDS011;21241;51.828;19.574;2023-05-16T09:53:41;3.20;;;2.40;;
35056;SDS011;21241;51.828;19.574;2023-05-16T09:56:10;2.60;;;2.40;;
35056;SDS011;21241;51.828;19.574;2023-05-16T09:58:41;2.50;;;2.30;;
35056;SDS011;21241;51.828;19.574;2023-05-16T10:01:10;2.70;;;2.50;;
35056;SDS011;21241;51.828;19.574;2023-05-16T10:03:38;2.70;;;2.50;;
35056;SDS011;21241;51.828;19.574;2023-05-16T10:06:07;2.60;;;2.40;;
35056;SDS011;21241;51.828;19.574;2023-05-16T10:08:35;2.60;;;2.40;;
35056;SDS011;21241;51.828;19.574;2023-05-16T10:11:04;2.40;;;2.30;;
35056;SDS011;21241;51.828;19.574;2023-05-16T10:13:33;2.70;;;2.60;;
35056;SDS011;21241;51.828;19.574;2023-05-16T10:16:09;2.70;;;2.60;;
35056;SDS011;21241;51.828;19.574;2023-05-16T10:18:38;2.70;;;2.50;;
35056;SDS011;21241;51.828;19.574;2023-05-16T10:21:08;2.90;;;2.80;;
35056;SDS011;21241;51.828;19.574;2023-05-16T10:23:40;2.90;;;2.70;;
35056;SDS011;21241;51.828;19.574;2023-05-16T10:26:09;2.60;;;2.50;;
35056;SDS011;21241;51.828;19.574;2023-05-16T10:28:40;2.70;;;2.50;;
35056;SDS011;21241;51.828;19.574;2023-05-16T10:31:08;3.00;;;2.80;;
35056;SDS011;21241;51.828;19.574;2023-05-16T10:33:37;3.00;;;2.90;;
35056;SDS011;21241;51.828;19.574;2023-05-16T10:36:09;3.40;;;3.20;;
35056;SDS011;21241;51.828;19.574;2023-05-16T10:38:37;3.50;;;3.20;;
35056;SDS011;21241;51.828;19.574;2023-05-16T10:41:05;3.00;;;2.70;;
35056;SDS011;21241;51.828;19.574;2023-05-16T10:43:34;3.40;;;3.10;;
35056;SDS011;21241;51.828;19.574;2023-05-16T10:46:02;3.10;;;2.80;;
35056;SDS011;21241;51.828;19.574;2023-05-16T10:48:33;3.20;;;3.00;;
35056;SDS011;21241;51.828;19.574;2023-05-16T10:51:03;3.20;;;3.00;;
35056;SDS011;21241;51.828;19.574;2023-05-16T10:53:52;3.30;;;3.10;;
35056;SDS011;21241;51.828;19.574;2023-05-16T10:56:25;3.30;;;3.10;;
35056;SDS011;21241;51.828;19.574;2023-05-16T10:58:53;3.30;;;3.10;;
35056;SDS011;21241;51.828;19.574;2023-05-16T11:01:29;3.20;;;3.00;;
35056;SDS011;21241;51.828;19.574;2023-05-16T11:03:59;3.40;;;3.20;;
35056;SDS011;21241;51.828;19.574;2023-05-16T11:11:43;3.30;;;3.00;;
35056;SDS011;21241;51.828;19.574;2023-05-16T11:14:23;3.20;;;3.00;;
35056;SDS011;21241;51.828;19.574;2023-05-16T11:17:19;3.90;;;3.30;;
35056;SDS011;21241;51.828;19.574;2023-05-16T11:19:49;3.30;;;3.10;;
35056;SDS011;21241;51.828;19.574;2023-05-16T11:27:36;3.30;;;3.00;;
35056;SDS011;21241;51.828;19.574;2023-05-16T11:30:10;3.30;;;3.10;;
35056;SDS011;21241;51.828;19.574;2023-05-16T11:32:43;3.20;;;3.00;;
35056;SDS011;21241;51.828;19.574;2023-05-16T11:35:12;4.10;;;3.80;;
35056;SDS011;21241;51.828;19.574;2023-05-16T11:37:42;3.40;;;3.10;;
35056;SDS011;21241;51.828;19.574;2023-05-16T11:40:11;3.70;;;3.40;;
35056;SDS011;21241;51.828;19.574;2023-05-16T11:42:44;3.30;;;3.10;;
35056;SDS011;21241;51.828;19.574;2023-05-16T11:45:15;3.50;;;3.30;;
35056;SDS011;21241;51.828;19.574;2023-05-16T11:47:44;3.70;;;3.40;;
35056;SDS011;21241;51.828;19.574;2023-05-16T11:50:15;3.40;;;3.20;;
35056;SDS011;21241;51.828;19.574;2023-05-16T11:52:45;3.50;;;3.30;;
35056;SDS011;21241;51.828;19.574;2023-05-16T11:55:21;3.20;;;3.00;;
35056;SDS011;21241;51.828;19.574;2023-05-16T11:58:07;3.00;;;2.80;;
35056;SDS011;21241;51.828;19.574;2023-05-16T12:00:36;3.20;;;3.00;;
35056;SDS011;21241;51.828;19.574;2023-05-16T12:03:03;3.90;;;3.70;;
35056;SDS011;21241;51.828;19.574;2023-05-16T12:05:32;3.60;;;3.40;;
35056;SDS011;21241;51.828;19.574;2023-05-16T12:08:02;3.60;;;3.30;;
35056;SDS011;21241;51.828;19.574;2023-05-16T12:10:32;3.20;;;3.00;;
35056;SDS011;21241;51.828;19.574;2023-05-16T12:13:01;3.30;;;3.00;;
35056;SDS011;21241;51.828;19.574;2023-05-16T12:15:29;3.30;;;3.10;;
35056;SDS011;21241;51.828;19.574;2023-05-16T12:17:58;3.10;;;2.90;;
35056;SDS011;21241;51.828;19.574;2023-05-16T12:20:26;3.30;;;3.00;;
35056;SDS011;21241;51.828;19.574;2023-05-16T12:22:56;3.40;;;3.20;;
35056;SDS011;21241;51.828;19.574;2023-05-16T12:27:59;3.90;;;3.50;;
35056;SDS011;21241;51.828;19.574;2023-05-16T12:30:29;3.30;;;3.10;;
35056;SDS011;21241;51.828;19.574;2023-05-16T12:32:59;3.60;;;3.30;;
35056;SDS011;21241;51.828;19.574;2023-05-16T12:35:36;3.60;;;3.40;;
35056;SDS011;21241;51.828;19.574;2023-05-16T12:38:06;3.90;;;3.60;;
35056;SDS011;21241;51.828;19.574;2023-05-16T12:40:35;3.30;;;3.00;;
35056;SDS011;21241;51.828;19.574;2023-05-16T12:43:11;3.10;;;2.90;;
35056;SDS011;21241;51.828;19.574;2023-05-16T12:45:40;3.20;;;3.10;;
35056;SDS011;21241;51.828;19.574;2023-05-16T12:48:12;3.80;;;3.60;;
35056;SDS011;21241;51.828;19.574;2023-05-16T12:50:43;3.20;;;3.00;;
35056;SDS011;21241;51.828;19.574;2023-05-16T12:53:13;3.40;;;3.20;;
35056;SDS011;21241;51.828;19.574;2023-05-16T12:55:42;3.40;;;3.20;;
35056;SDS011;21241;51.828;19.574;2023-05-16T12:58:10;3.20;;;3.00;;
35056;SDS011;21241;51.828;19.574;2023-05-16T13:00:38;3.60;;;3.40;;
35056;SDS011;21241;51.828;19.574;2023-05-16T13:03:06;3.40;;;3.20;;
35056;SDS011;21241;51.828;19.574;2023-05-16T13:05:34;3.30;;;3.10;;
35056;SDS011;21241;51.828;19.574;2023-05-16T13:08:03;3.70;;;3.50;;
35056;SDS011;21241;51.828;19.574;2023-05-16T13:10:31;3.70;;;3.40;;
35056;SDS011;21241;51.828;19.574;2023-05-16T13:12:58;3.70;;;3.50;;
35056;SDS011;21241;51.828;19.574;2023-05-16T13:15:26;3.30;;;3.10;;
35056;SDS011;21241;51.828;19.574;2023-05-16T13:17:55;3.70;;;3.40;;
35056;SDS011;21241;51.828;19.574;2023-05-16T13:20:23;3.80;;;3.50;;
35056;SDS011;21241;51.828;19.574;2023-05-16T13:22:51;3.70;;;3.50;;
35056;SDS011;21241;51.828;19.574;2023-05-16T13:25:18;3.60;;;3.40;;
35056;SDS011;21241;51.828;19.574;2023-05-16T13:27:46;4.00;;;3.60;;
35056;SDS011;21241;51.828;19.574;2023-05-16T13:30:15;3.90;;;3.70;;
35056;SDS011;21241;51.828;19.574;2023-05-16T13:32:43;3.90;;;3.70;;
35056;SDS011;21241;51.828;19.574;2023-05-16T13:35:11;3.90;;;3.60;;
35056;SDS011;21241;51.828;19.574;2023-05-16T13:37:39;3.50;;;3.30;;
35056;SDS011;21241;51.828;19.574;2023-05-16T13:40:08;3.50;;;3.20;;
35056;SDS011;21241;51.828;19.574;2023-05-16T13:42:37;3.80;;;3.60;;
35056;SDS011;21241;51.828;19.574;2023-05-16T13:45:05;4.00;;;3.70;;
35056;SDS011;21241;51.828;19.574;2023-05-16T13:47:33;3.70;;;3.50;;
35056;SDS011;21241;51.828;19.574;2023-05-16T13:50:01;3.90;;;3.50;;
35056;SDS011;21241;51.828;19.574;2023-05-16T13:52:32;3.90;;;3.60;;
35056;SDS011;21241;51.828;19.574;2023-05-16T13:55:02;3.80;;;3.60;;
35056;SDS011;21241;51.828;19.574;2023-05-16T13:57:30;3.70;;;3.50;;
35056;SDS011;21241;51.828;19.574;2023-05-16T13:59:59;3.70;;;3.50;;
35056;SDS011;21241;51.828;19.574;2023-05-16T14:02:47;3.80;;;3.60;;
35056;SDS011;21241;51.828;19.574;2023-05-16T14:05:15;3.90;;;3.70;;
35056;SDS011;21241;51.828;19.574;2023-05-16T14:07:42;3.90;;;3.70;;
35056;SDS011;21241;51.828;19.574;2023-05-16T14:10:13;3.60;;;3.40;;
35056;SDS011;21241;51.828;19.574;2023-05-16T14:12:41;4.70;;;4.40;;
35056;SDS011;21241;51.828;19.574;2023-05-16T14:15:09;4.20;;;3.80;;
35056;SDS011;21241;51.828;19.574;2023-05-16T14:17:36;3.80;;;3.50;;
35056;SDS011;21241;51.828;19.574;2023-05-16T14:20:04;3.70;;;3.40;;
35056;SDS011;21241;51.828;19.574;2023-05-16T14:22:36;4.00;;;3.70;;
35056;SDS011;21241;51.828;19.574;2023-05-16T14:25:05;4.10;;;3.80;;
35056;SDS011;21241;51.828;19.574;2023-05-16T14:27:33;3.70;;;3.50;;
35056;SDS011;21241;51.828;19.574;2023-05-16T14:30:01;4.90;;;3.80;;
35056;SDS011;21241;51.828;19.574;2023-05-16T14:32:29;3.90;;;3.70;;
35056;SDS011;21241;51.828;19.574;2023-05-16T14:34:57;3.80;;;3.60;;
35056;SDS011;21241;51.828;19.574;2023-05-16T14:37:24;3.50;;;3.30;;
35056;SDS011;21241;51.828;19.574;2023-05-16T14:39:52;3.80;;;3.40;;
35056;SDS011;21241;51.828;19.574;2023-05-16T14:42:20;3.60;;;3.40;;
35056;SDS011;21241;51.828;19.574;2023-05-16T14:44:48;4.20;;;3.90;;
35056;SDS011;21241;51.828;19.574;2023-05-16T14:47:16;3.80;;;3.50;;
35056;SDS011;21241;51.828;19.574;2023-05-16T14:49:44;4.10;;;3.80;;
35056;SDS011;21241;51.828;19.574;2023-05-16T14:52:11;3.70;;;3.50;;
35056;SDS011;21241;51.828;19.574;2023-05-16T14:54:39;4.00;;;3.80;;